Terminal Aerodrome Forecast
Issued by NWS

Home | Current Version | Previous Version | Text Only | Print | Product List | Glossary On
Versions: 1 2 3 4 5 6 7 8 9 10 11 12 13 14
000
FTUS42 KMHX 240900 AAA
TAFISO
TAF AMD
KISO 240907Z 2409/2506 18008KT P6SM VCSH SCT035 BKN070
     FM241300 20015G20KT P6SM SCT007 BKN025
     FM242200 19008KT 5SM BR OVC010
      AMD LTD TO CLD VIS AND WIND=

USA.gov is the U.S. government's official web portal to all federal, state and local government web resources and services.